Time;durP1;ratioP1;P1;durP2;ratioP2;P2;SDS_P1;SDS_P2;PMS_P1;PMS_P2;Temp;Humidity;BMP_temperature;BMP_pressure;BME280_temperature;BME280_humidity;BME280_pressure;Samples;Min_cycle;Max_cycle;Signal;HPM_P1;HPM_P2
2022/04/12 00:00:26;;;;;;;4.13;3.00;;;3.50;99.90;;;;;;5053316;28;20036;-78
2022/04/12 00:02:51;;;;;;;2.53;2.33;;;3.50;99.90;;;;;;5053204;28;20043;-77
2022/04/12 00:05:18;;;;;;;3.20;2.22;;;3.50;99.90;;;;;;5053198;28;20029;-78
2022/04/12 00:07:44;;;;;;;2.10;1.90;;;3.50;99.90;;;;;;5053128;28;20040;-78
2022/04/12 00:10:12;;;;;;;2.67;2.47;;;3.40;99.90;;;;;;5052944;28;20401;-76
2022/04/12 00:12:37;;;;;;;;;;;3.40;99.90;;;;;;5053393;28;20103;-77
2022/04/12 00:15:05;;;;;;;2.60;2.00;;;3.50;99.90;;;;;;5053124;28;19905;-78
2022/04/12 00:20:18;;;;;;;2.35;2.00;;;3.60;99.90;;;;;;5053176;28;20056;-78
2022/04/12 00:22:44;;;;;;;3.42;2.10;;;3.60;99.90;;;;;;5052748;28;20379;-77
2022/04/12 00:25:10;;;;;;;2.90;2.60;;;3.60;99.90;;;;;;5052715;28;20175;-77
2022/04/12 00:27:37;;;;;;;2.83;2.47;;;3.60;99.90;;;;;;5046262;28;20088;-78
2022/04/12 00:30:06;;;;;;;2.58;2.22;;;3.70;99.90;;;;;;5031983;28;20037;-77
2022/04/12 00:32:33;;;;;;;2.63;2.42;;;3.70;99.90;;;;;;5031238;28;20063;-78
2022/04/12 00:34:59;;;;;;;2.50;2.30;;;3.70;99.90;;;;;;5047468;28;20036;-78
2022/04/12 00:37:25;;;;;;;3.45;2.33;;;3.60;99.90;;;;;;5052572;28;20604;-78
2022/04/12 00:39:51;;;;;;;3.17;1.98;;;3.60;99.90;;;;;;5052511;28;20032;-78
2022/04/12 00:42:17;;;;;;;2.15;1.98;;;3.60;99.90;;;;;;5052325;28;20032;-76
2022/04/12 00:44:43;;;;;;;2.60;2.20;;;3.60;99.90;;;;;;5052509;28;20028;-76
2022/04/12 00:47:08;;;;;;;2.28;1.90;;;3.60;99.90;;;;;;5052670;28;20025;-79
2022/04/12 00:49:34;;;;;;;2.92;2.50;;;3.60;99.90;;;;;;5052411;28;20036;-76
2022/04/12 00:52:00;;;;;;;2.60;2.40;;;3.60;99.90;;;;;;5052508;28;20099;-78
2022/04/12 00:54:28;;;;;;;2.95;2.63;;;3.70;99.90;;;;;;5034342;28;20032;-77
2022/04/12 00:56:54;;;;;;;3.78;2.83;;;3.60;99.90;;;;;;5052240;28;20029;-78
2022/04/12 00:59:20;;;;;;;2.83;2.63;;;3.60;99.90;;;;;;5052322;28;20468;-77
2022/04/12 01:01:46;;;;;;;2.60;2.40;;;3.60;99.90;;;;;;5053055;28;20025;-77
2022/04/12 01:04:12;;;;;;;2.63;2.42;;;3.60;99.90;;;;;;5035309;28;20091;-77
2022/04/12 01:06:38;;;;;;;1.90;1.75;;;3.60;99.90;;;;;;5053483;28;20433;-78
2022/04/12 01:09:05;;;;;;;3.13;2.83;;;3.50;99.90;;;;;;5052394;28;20094;-78
2022/04/12 01:11:35;;;;;;;3.05;2.78;;;3.50;99.90;;;;;;5052783;28;20387;-77
2022/04/12 01:14:01;;;;;;;2.92;2.72;;;3.50;99.90;;;;;;5052167;28;20037;-79
2022/04/12 01:16:27;;;;;;;3.95;3.03;;;3.60;99.90;;;;;;5051227;28;20027;-78
2022/04/12 01:18:53;;;;;;;3.28;2.92;;;3.60;99.90;;;;;;5032146;28;20112;-77
2022/04/12 01:21:20;;;;;;;3.60;2.70;;;3.60;99.90;;;;;;5032088;28;20448;-76
2022/04/12 01:23:51;;;;;;;3.50;3.20;;;3.60;99.90;;;;;;5032257;28;20467;-79
2022/04/12 01:26:17;;;;;;;3.15;2.85;;;3.60;99.90;;;;;;5034144;28;20025;-81
2022/04/12 01:28:44;;;;;;;3.35;3.05;;;3.70;99.90;;;;;;5052036;28;20394;-77
2022/04/12 01:31:10;;;;;;;3.78;3.35;;;3.60;99.90;;;;;;5052285;28;20033;-79
2022/04/12 01:33:37;;;;;;;3.88;3.47;;;3.60;99.90;;;;;;5052072;28;20449;-77
2022/04/12 01:36:03;;;;;;;3.50;3.20;;;3.60;99.90;;;;;;5055262;28;20078;-78
2022/04/12 01:38:29;;;;;;;3.38;3.08;;;3.60;99.90;;;;;;5037848;28;20437;-78
2022/04/12 01:40:55;;;;;;;4.28;3.80;;;3.70;99.90;;;;;;5052421;28;20032;-79
2022/04/12 01:43:21;;;;;;;4.25;3.03;;;3.70;99.90;;;;;;5056383;28;20092;-80
2022/04/12 01:45:47;;;;;;;4.43;2.97;;;3.70;99.90;;;;;;5058465;28;20494;-80
2022/04/12 01:48:12;;;;;;;3.78;3.47;;;3.70;99.90;;;;;;5065469;28;20017;-79
2022/04/12 01:50:38;;;;;;;3.88;3.58;;;3.70;99.90;;;;;;5049753;28;20564;-79
2022/04/12 01:53:04;;;;;;;4.55;4.13;;;3.70;99.90;;;;;;5045607;28;20028;-78
2022/04/12 01:55:30;;;;;;;4.18;3.78;;;3.70;99.90;;;;;;5055607;28;20029;-78
2022/04/12 01:57:56;;;;;;;4.55;3.58;;;3.80;99.90;;;;;;5041067;28;20017;-79
2022/04/12 02:00:22;;;;;;;4.43;3.97;;;3.80;99.90;;;;;;5035573;28;20510;-80
2022/04/12 02:02:48;;;;;;;4.13;3.72;;;3.80;99.90;;;;;;5035635;28;20057;-80
2022/04/12 02:05:13;;;;;;;5.55;5.05;;;3.80;99.90;;;;;;5039328;28;20445;-76
2022/04/12 02:07:43;;;;;;;4.82;4.38;;;3.80;99.90;;;;;;5055267;28;20021;-78
2022/04/12 02:10:09;;;;;;;4.57;4.18;;;3.80;99.90;;;;;;5055359;28;20055;-78
2022/04/12 02:12:35;;;;;;;4.97;4.47;;;3.80;99.90;;;;;;5037390;28;20029;-78
2022/04/12 02:15:03;;;;;;;5.88;4.90;;;3.90;99.90;;;;;;5055143;28;20099;-78
2022/04/12 02:17:29;;;;;;;5.55;5.05;;;3.80;99.90;;;;;;5055128;28;20128;-78
2022/04/12 02:19:55;;;;;;;5.70;5.10;;;3.90;99.90;;;;;;5055372;28;20032;-78
2022/04/12 02:22:21;;;;;;;5.35;4.85;;;3.80;99.90;;;;;;5050353;28;20026;-78
2022/04/12 02:24:47;;;;;;;6.57;5.63;;;3.80;99.90;;;;;;5035091;28;20508;-79
2022/04/12 02:27:12;;;;;;;5.97;5.40;;;3.90;99.90;;;;;;5034941;28;20064;-78
2022/04/12 02:29:39;;;;;;;5.38;4.78;;;3.90;99.90;;;;;;5035033;28;20045;-78
2022/04/12 02:32:05;;;;;;;6.05;5.47;;;3.80;99.90;;;;;;5034997;28;20025;-78
2022/04/12 02:34:30;;;;;;;5.80;5.18;;;3.80;99.90;;;;;;5045888;28;20414;-80
2022/04/12 02:36:56;;;;;;;6.22;5.63;;;3.80;99.90;;;;;;5054797;28;20120;-78
2022/04/12 02:39:22;;;;;;;6.22;5.65;;;3.80;99.90;;;;;;5054820;28;20024;-78
2022/04/12 02:41:48;;;;;;;6.90;6.22;;;3.80;99.90;;;;;;5037279;28;20390;-78
2022/04/12 02:44:14;;;;;;;5.50;5.00;;;3.80;99.90;;;;;;5036844;28;20028;-79
2022/04/12 02:46:40;;;;;;;6.50;5.78;;;3.70;99.90;;;;;;5054627;28;20025;-78
2022/04/12 02:49:07;;;;;;;7.47;6.25;;;3.60;99.90;;;;;;5054402;28;20086;-78
2022/04/12 02:51:32;;;;;;;6.72;6.03;;;3.60;99.90;;;;;;5054820;28;20028;-78
2022/04/12 02:53:58;;;;;;;7.63;6.93;;;3.60;99.90;;;;;;5053784;28;20033;-79
2022/04/12 02:56:24;;;;;;;7.05;6.15;;;3.70;99.90;;;;;;5054806;28;20029;-77
2022/04/12 02:58:50;;;;;;;7.65;6.75;;;3.80;99.90;;;;;;5054821;28;20036;-78
2022/04/12 03:01:16;;;;;;;8.63;6.65;;;3.80;99.90;;;;;;5054857;28;20024;-78
2022/04/12 03:03:41;;;;;;;8.18;7.38;;;3.80;99.90;;;;;;5054715;28;20045;-78
2022/04/12 03:06:07;;;;;;;7.38;6.57;;;3.80;99.90;;;;;;5036353;28;20104;-79
2022/04/12 03:08:33;;;;;;;8.27;7.32;;;3.80;99.90;;;;;;5036291;28;20387;-77
2022/04/12 03:10:59;;;;;;;9.10;8.30;;;3.80;99.90;;;;;;5054146;28;20566;-77
2022/04/12 03:13:25;;;;;;;7.57;6.88;;;3.70;99.90;;;;;;5054433;28;20096;-78
2022/04/12 03:15:51;;;;;;;8.90;8.00;;;3.70;99.90;;;;;;5036169;28;20032;-79
2022/04/12 03:18:17;;;;;;;8.32;7.53;;;3.80;99.90;;;;;;5054002;28;20021;-77
2022/04/12 03:20:43;;;;;;;10.65;7.72;;;3.80;99.90;;;;;;5054388;28;20101;-77
2022/04/12 03:23:09;;;;;;;8.55;7.28;;;3.80;99.90;;;;;;5053957;28;20025;-80
2022/04/12 03:25:35;;;;;;;9.43;8.48;;;3.80;99.90;;;;;;5054334;28;20083;-77
2022/04/12 03:28:03;;;;;;;9.70;8.70;;;3.80;99.90;;;;;;5043013;28;20121;-78
2022/04/12 03:30:28;;;;;;;;;;;3.90;99.90;;;;;;5034301;28;20549;-77
2022/04/12 03:32:55;;;;;;;9.80;8.50;;;3.90;99.90;;;;;;5033713;28;20003;-77
2022/04/12 03:35:21;;;;;;;8.82;7.97;;;3.90;99.90;;;;;;5050226;28;20432;-79
2022/04/12 03:37:48;;;;;;;8.88;7.60;;;3.90;99.90;;;;;;5035827;28;20028;-78
2022/04/12 03:40:14;;;;;;;11.05;9.85;;;3.90;99.90;;;;;;5053700;28;20025;-78
2022/04/12 03:42:40;;;;;;;13.25;9.57;;;3.90;99.90;;;;;;5053530;28;20508;-79
2022/04/12 03:45:06;;;;;;;14.05;11.05;;;3.90;99.90;;;;;;5053658;28;20029;-78
2022/04/12 03:47:32;;;;;;;13.15;9.52;;;3.90;99.90;;;;;;5053547;28;20110;-78
2022/04/12 03:49:57;;;;;;;11.93;9.63;;;3.90;99.90;;;;;;5058206;28;20074;-77
2022/04/12 03:52:23;;;;;;;13.88;10.77;;;3.90;99.90;;;;;;5074094;28;20016;-78
2022/04/12 03:54:49;;;;;;;12.40;9.98;;;4.00;99.90;;;;;;5074948;28;20020;-78
2022/04/12 03:57:17;;;;;;;12.00;10.45;;;4.10;99.90;;;;;;5078644;28;20385;-77
2022/04/12 03:59:42;;;;;;;;;;;4.20;99.90;;;;;;5076617;28;20398;-77
2022/04/12 04:02:08;;;;;;;16.08;12.20;;;4.30;99.90;;;;;;5074112;28;19908;-78
2022/04/12 04:04:34;;;;;;;13.93;9.27;;;4.30;99.90;;;;;;5073913;28;20027;-77
2022/04/12 04:07:00;;;;;;;12.90;9.30;;;4.30;99.90;;;;;;5073329;28;20050;-77
2022/04/12 04:09:26;;;;;;;13.85;11.48;;;4.20;99.90;;;;;;5055176;28;20039;-78
2022/04/12 04:11:51;;;;;;;13.65;10.38;;;4.20;99.90;;;;;;5073121;28;20107;-78
2022/04/12 04:14:17;;;;;;;19.15;11.63;;;4.20;99.90;;;;;;5073035;28;20029;-77
2022/04/12 04:16:43;;;;;;;18.80;11.07;;;4.30;99.90;;;;;;5072839;28;20031;-78
2022/04/12 04:19:09;;;;;;;14.93;10.95;;;4.30;99.90;;;;;;5072846;28;20036;-79
2022/04/12 04:21:38;;;;;;;14.15;10.95;;;4.40;99.90;;;;;;5072773;28;20086;-78
2022/04/12 04:24:05;;;;;;;13.80;10.35;;;4.40;99.90;;;;;;5072585;28;20081;-78
2022/04/12 04:26:31;;;;;;;24.00;11.07;;;4.40;99.90;;;;;;5072760;28;20473;-78
2022/04/12 04:28:57;;;;;;;21.02;11.35;;;4.40;99.90;;;;;;5035454;28;20404;-79
2022/04/12 04:31:23;;;;;;;14.00;11.50;;;4.40;99.90;;;;;;5032812;28;20085;-78
2022/04/12 04:33:49;;;;;;;15.93;11.38;;;4.50;99.90;;;;;;5038433;28;20041;-78
2022/04/12 04:36:14;;;;;;;15.60;12.00;;;4.50;99.90;;;;;;5052935;28;20078;-79
2022/04/12 04:38:40;;;;;;;13.98;11.70;;;4.70;99.90;;;;;;5052661;28;20036;-80
2022/04/12 04:41:06;;;;;;;14.77;11.27;;;4.70;99.90;;;;;;5052578;28;20040;-77
2022/04/12 04:43:32;;;;;;;15.30;12.45;;;4.60;99.90;;;;;;5052752;28;20013;-79
2022/04/12 04:45:57;;;;;;;21.13;14.20;;;4.60;99.90;;;;;;5053621;28;20029;-80
2022/04/12 04:48:23;;;;;;;19.80;12.70;;;4.60;99.90;;;;;;5054498;28;20013;-79
2022/04/12 04:50:49;;;;;;;18.33;13.10;;;4.60;99.90;;;;;;5052835;28;20029;-81
2022/04/12 04:53:15;;;;;;;19.88;12.80;;;4.60;99.90;;;;;;5049687;28;20093;-82
2022/04/12 04:55:44;;;;;;;20.27;11.57;;;4.60;99.90;;;;;;5051295;28;20398;-79
2022/04/12 04:58:10;;;;;;;19.38;13.32;;;4.50;99.90;;;;;;5051685;28;20863;-80
2022/04/12 05:00:36;;;;;;;19.85;12.98;;;4.50;99.90;;;;;;5052833;28;20033;-80
2022/04/12 05:03:03;;;;;;;13.98;12.20;;;4.60;99.90;;;;;;5052343;28;20438;-81
2022/04/12 05:05:30;;;;;;;19.73;13.73;;;4.60;99.90;;;;;;5052515;28;20041;-82
2022/04/12 05:07:57;;;;;;;18.25;14.15;;;4.70;99.90;;;;;;5034758;28;20108;-81
2022/04/12 05:10:25;;;;;;;21.90;15.02;;;4.70;99.90;;;;;;5034428;28;20394;-80
2022/04/12 05:12:51;;;;;;;21.33;12.15;;;4.70;99.90;;;;;;5051217;28;20110;-79
2022/04/12 05:15:18;;;;;;;20.48;14.50;;;4.70;99.90;;;;;;5053066;28;20147;-80
2022/04/12 05:17:53;;;;;;;17.45;13.73;;;4.70;99.90;;;;;;5052100;28;20017;-77
2022/04/12 05:20:21;;;;;;;18.15;14.10;;;4.70;99.90;;;;;;5053657;28;20038;-83
2022/04/12 05:22:47;;;;;;;23.00;14.18;;;4.70;99.90;;;;;;5056794;28;20045;-81
2022/04/12 05:25:14;;;;;;;22.95;15.45;;;4.70;99.90;;;;;;5057049;28;20025;-79
2022/04/12 05:27:40;;;;;;;22.67;15.23;;;4.70;99.90;;;;;;5053094;28;20014;-80
2022/04/12 05:30:08;;;;;;;19.88;15.05;;;4.80;99.90;;;;;;5052577;28;20063;-81
2022/04/12 05:32:35;;;;;;;18.25;13.30;;;4.80;99.90;;;;;;5030817;28;20060;-81
2022/04/12 05:35:01;;;;;;;21.05;14.77;;;4.80;99.90;;;;;;5014495;28;20042;-80
2022/04/12 05:37:28;;;;;;;26.60;15.85;;;4.90;99.90;;;;;;5032886;28;20033;-80
2022/04/12 05:39:56;;;;;;;23.60;15.27;;;5.00;99.90;;;;;;5031419;28;20394;-81
2022/04/12 05:42:23;;;;;;;21.92;15.75;;;5.10;99.90;;;;;;5032514;28;20030;-80
2022/04/12 05:44:49;;;;;;;18.83;13.50;;;5.20;99.90;;;;;;5051466;28;20222;-81
2022/04/12 05:47:15;;;;;;;19.10;15.23;;;5.30;99.90;;;;;;5050833;28;20032;-80
2022/04/12 05:49:41;;;;;;;17.58;14.60;;;5.30;99.90;;;;;;5052491;28;20094;-81
2022/04/12 05:52:10;;;;;;;21.38;15.13;;;5.40;99.90;;;;;;5051910;28;20471;-82
2022/04/12 05:54:36;;;;;;;20.52;15.48;;;5.50;99.90;;;;;;5052882;28;20032;-79
2022/04/12 05:57:02;;;;;;;19.58;14.25;;;5.50;99.90;;;;;;5051599;28;20017;-79
2022/04/12 05:59:28;;;;;;;22.92;15.57;;;5.70;99.90;;;;;;5052562;28;20028;-80
2022/04/12 06:01:53;;;;;;;16.95;12.13;;;5.90;99.90;;;;;;5050873;28;20386;-80
2022/04/12 06:04:19;;;;;;;19.35;14.32;;;6.00;99.90;;;;;;5053597;28;20032;-79
2022/04/12 06:06:45;;;;;;;15.40;11.88;;;5.90;99.90;;;;;;5054044;28;20036;-78
2022/04/12 06:09:12;;;;;;;24.27;16.95;;;5.90;99.90;;;;;;5053115;28;20021;-80
2022/04/12 06:11:37;;;;;;;23.35;14.60;;;5.70;99.90;;;;;;5052156;28;20026;-81
2022/04/12 06:14:03;;;;;;;23.52;17.15;;;5.70;99.90;;;;;;5051518;28;20033;-81
2022/04/12 06:16:29;;;;;;;23.48;15.48;;;5.80;99.90;;;;;;5033576;28;20025;-80
2022/04/12 06:18:56;;;;;;;24.00;16.67;;;5.80;99.90;;;;;;5050786;28;20398;-81
2022/04/12 06:21:22;;;;;;;25.50;18.83;;;5.70;99.90;;;;;;5032934;28;20496;-81
2022/04/12 06:23:48;;;;;;;25.48;18.17;;;5.70;99.90;;;;;;5050928;28;20021;-79
2022/04/12 06:26:13;;;;;;;28.70;19.95;;;5.70;99.90;;;;;;5051167;28;20028;-79
2022/04/12 06:28:39;;;;;;;28.05;19.58;;;5.90;99.90;;;;;;5050242;28;20052;-79
2022/04/12 06:31:05;;;;;;;23.80;18.00;;;6.00;99.90;;;;;;5054288;28;20496;-79
2022/04/12 06:33:31;;;;;;;24.40;17.55;;;6.30;99.90;;;;;;5049350;28;20802;-83
2022/04/12 06:35:57;;;;;;;24.67;19.25;;;6.40;99.90;;;;;;5020100;28;20033;-81
2022/04/12 06:38:23;;;;;;;28.75;19.10;;;6.40;99.90;;;;;;5033986;28;20446;-81
2022/04/12 06:40:49;;;;;;;23.33;17.25;;;6.40;99.90;;;;;;5037090;28;20136;-83
2022/04/12 06:43:16;;;;;;;23.73;16.60;;;6.50;99.90;;;;;;5034403;28;20049;-81
2022/04/12 06:45:41;;;;;;;25.00;17.30;;;6.60;99.90;;;;;;5018319;28;20482;-77
2022/04/12 06:48:08;;;;;;;24.65;18.10;;;6.50;99.90;;;;;;5039517;28;20015;-85
2022/04/12 06:50:34;;;;;;;23.65;18.15;;;6.50;99.90;;;;;;5036852;28;20076;-80
2022/04/12 06:53:03;;;;;;;23.35;16.98;;;6.40;99.90;;;;;;5044448;28;20025;-78
2022/04/12 06:55:29;;;;;;;24.60;19.10;;;6.40;99.90;;;;;;5053858;28;20508;-78
2022/04/12 06:57:55;;;;;;;27.30;20.80;;;6.30;99.90;;;;;;5054111;28;20474;-77
2022/04/12 07:00:21;;;;;;;25.95;19.13;;;6.30;99.90;;;;;;5056265;28;20052;-77
2022/04/12 07:02:47;;;;;;;27.52;19.05;;;6.40;99.90;;;;;;5054979;28;20031;-80
2022/04/12 07:05:13;;;;;;;25.63;20.42;;;6.30;99.90;;;;;;5054265;28;20022;-78
2022/04/12 07:07:40;;;;;;;27.38;19.95;;;6.30;99.90;;;;;;5053007;28;20029;-79
2022/04/12 07:10:08;;;;;;;25.77;20.10;;;6.40;99.90;;;;;;5037517;28;20032;-77
2022/04/12 07:12:34;;;;;;;29.50;20.52;;;6.50;99.90;;;;;;5054184;28;20029;-79
2022/04/12 07:15:00;;;;;;;27.15;18.70;;;6.50;99.90;;;;;;5035965;28;20442;-78
2022/04/12 07:17:26;;;;;;;32.28;22.73;;;6.50;99.90;;;;;;5054950;28;20592;-77
2022/04/12 07:19:52;;;;;;;25.92;20.23;;;6.40;99.90;;;;;;5036423;28;20121;-79
2022/04/12 07:22:18;;;;;;;29.33;19.92;;;6.40;99.90;;;;;;5053880;28;20097;-78
2022/04/12 07:24:43;;;;;;;32.78;21.83;;;6.40;99.90;;;;;;5053624;28;20031;-80
2022/04/12 07:27:09;;;;;;;29.40;20.77;;;6.60;99.90;;;;;;5053489;28;20039;-78
2022/04/12 07:29:35;;;;;;;29.00;21.17;;;6.70;99.90;;;;;;5035916;28;20059;-79
2022/04/12 07:32:02;;;;;;;29.55;21.67;;;6.80;99.90;;;;;;5054124;28;20025;-79
2022/04/12 07:34:27;;;;;;;36.13;22.48;;;6.80;99.90;;;;;;5053258;28;20127;-79
2022/04/12 07:36:53;;;;;;;38.40;25.67;;;6.90;99.90;;;;;;5053539;28;20100;-81
2022/04/12 07:39:22;;;;;;;31.27;21.83;;;6.90;99.90;;;;;;5053305;28;20402;-79
2022/04/12 07:41:48;;;;;;;34.58;23.45;;;6.70;99.90;;;;;;5052779;28;20086;-80
2022/04/12 07:44:14;;;;;;;33.70;23.98;;;6.80;99.90;;;;;;5054142;28;20391;-78
2022/04/12 07:46:41;;;;;;;35.42;23.70;;;7.00;99.90;;;;;;5053688;28;20506;-79
2022/04/12 07:49:07;;;;;;;34.20;21.77;;;7.10;99.90;;;;;;5053391;28;20025;-80
2022/04/12 07:51:34;;;;;;;27.13;20.48;;;7.30;99.90;;;;;;5053890;28;20486;-79
2022/04/12 07:54:03;;;;;;;31.95;22.55;;;7.30;99.90;;;;;;5035409;28;20127;-79
2022/04/12 07:56:30;;;;;;;30.58;21.48;;;7.40;99.90;;;;;;5052602;28;20029;-78
2022/04/12 07:58:56;;;;;;;30.17;21.60;;;7.40;99.90;;;;;;5053436;28;20558;-80
2022/04/12 08:01:22;;;;;;;29.15;20.65;;;7.40;99.90;;;;;;5053327;28;20033;-78
2022/04/12 08:03:47;;;;;;;29.33;21.42;;;7.40;99.90;;;;;;5053376;28;20200;-78
2022/04/12 08:06:14;;;;;;;35.97;22.98;;;7.40;99.70;;;;;;5035605;28;20028;-78
2022/04/12 08:08:40;;;;;;;34.45;22.27;;;7.40;99.70;;;;;;5053128;28;20024;-79
2022/04/12 08:11:07;;;;;;;33.45;25.45;;;7.40;99.90;;;;;;5053282;28;20029;-79
2022/04/12 08:13:33;;;;;;;34.60;25.90;;;7.40;99.90;;;;;;5052912;28;20498;-79
2022/04/12 08:15:59;;;;;;;37.72;24.75;;;7.50;99.90;;;;;;5061669;28;20114;-79
2022/04/12 08:18:25;;;;;;;31.05;23.70;;;7.40;99.70;;;;;;5040501;28;20092;-81
2022/04/12 08:20:51;;;;;;;34.90;25.98;;;7.50;99.90;;;;;;5053950;28;20401;-79
2022/04/12 08:23:20;;;;;;;33.92;25.20;;;7.60;99.90;;;;;;5052812;28;20083;-79
2022/04/12 08:25:46;;;;;;;34.13;25.75;;;7.60;99.90;;;;;;5053237;28;20059;-80
2022/04/12 08:28:11;;;;;;;35.00;23.52;;;7.70;99.90;;;;;;5035043;28;20453;-80
2022/04/12 08:30:37;;;;;;;33.38;24.13;;;7.70;99.60;;;;;;5051669;28;20128;-79
2022/04/12 08:33:03;;;;;;;31.90;23.35;;;7.80;99.20;;;;;;5053449;28;20029;-79
2022/04/12 08:35:29;;;;;;;37.67;25.48;;;7.80;99.20;;;;;;5053680;28;20053;-79
2022/04/12 08:37:55;;;;;;;37.88;24.15;;;7.90;99.20;;;;;;5052843;28;20414;-79
2022/04/12 08:40:21;;;;;;;32.95;23.38;;;7.90;99.10;;;;;;5054625;28;20033;-79
2022/04/12 08:42:47;;;;;;;31.67;23.17;;;8.10;99.20;;;;;;5053480;28;20025;-79
2022/04/12 08:45:13;;;;;;;38.50;25.83;;;8.20;99.10;;;;;;5052652;28;20482;-82
2022/04/12 08:47:40;;;;;;;31.35;23.60;;;8.40;99.00;;;;;;5052416;28;20165;-82
2022/04/12 08:50:07;;;;;;;34.25;24.23;;;8.50;98.40;;;;;;5052624;28;20037;-79
2022/04/12 08:52:35;;;;;;;37.15;26.08;;;8.50;98.00;;;;;;5051821;28;20044;-80
2022/04/12 08:55:01;;;;;;;33.38;24.05;;;8.50;98.10;;;;;;5052629;28;20043;-80
2022/04/12 08:57:28;;;;;;;38.10;25.30;;;8.40;98.10;;;;;;5052307;28;20021;-78
2022/04/12 08:59:56;;;;;;;29.05;20.95;;;8.50;98.20;;;;;;5052155;28;20262;-80
2022/04/12 09:02:23;;;;;;;34.88;24.15;;;8.60;98.10;;;;;;5051095;28;20028;-81
2022/04/12 09:04:49;;;;;;;36.72;25.67;;;8.70;98.00;;;;;;5052081;28;20051;-80
2022/04/12 09:07:16;;;;;;;36.67;24.83;;;8.80;97.90;;;;;;5052613;28;20075;-78
2022/04/12 09:09:43;;;;;;;32.95;24.05;;;8.90;97.70;;;;;;5052579;28;20041;-80
2022/04/12 09:12:12;;;;;;;33.35;24.77;;;9.00;97.40;;;;;;5034986;28;20049;-79
2022/04/12 09:14:52;;;;;;;39.67;25.63;;;9.00;97.10;;;;;;5052580;28;20037;-80
2022/04/12 09:17:29;;;;;;;38.78;27.35;;;9.10;97.20;;;;;;5052437;28;20071;-80
2022/04/12 09:19:55;;;;;;;42.90;28.38;;;9.10;96.70;;;;;;5051956;28;20486;-80
2022/04/12 09:22:24;;;;;;;39.05;27.05;;;9.10;96.70;;;;;;5034404;28;20033;-79
2022/04/12 09:24:52;;;;;;;46.97;30.45;;;9.10;96.70;;;;;;5051989;28;20032;-80
2022/04/12 09:27:29;;;;;;;41.47;28.80;;;9.10;96.70;;;;;;5052381;28;20103;-80
2022/04/12 09:29:57;;;;;;;38.55;27.48;;;9.10;96.50;;;;;;5034221;28;20631;-79
2022/04/12 09:32:24;;;;;;;39.58;27.20;;;9.10;96.70;;;;;;5052255;28;20496;-80
2022/04/12 09:34:52;;;;;;;38.28;28.23;;;9.10;96.60;;;;;;5033136;28;20053;-81
2022/04/12 09:37:25;;;;;;;39.63;28.15;;;9.20;96.60;;;;;;5052283;28;20079;-81
2022/04/12 09:40:04;;;;;;;42.42;28.35;;;9.40;96.60;;;;;;5034084;28;20029;-81
2022/04/12 09:42:42;;;;;;;42.40;28.75;;;9.50;96.20;;;;;;5051607;28;20108;-81
2022/04/12 09:45:13;;;;;;;42.72;29.85;;;9.60;96.10;;;;;;5051617;28;20437;-80
2022/04/12 09:47:42;;;;;;;37.97;28.42;;;9.70;95.70;;;;;;5051636;28;20158;-80
2022/04/12 09:50:09;;;;;;;39.95;28.33;;;9.90;95.30;;;;;;5052208;28;20032;-79
2022/04/12 09:52:35;;;;;;;41.58;29.25;;;9.70;94.50;;;;;;5050056;28;20032;-79
2022/04/12 09:55:01;;;;;;;38.97;28.85;;;9.70;95.00;;;;;;5034897;28;20021;-79
2022/04/12 09:57:26;;;;;;;40.03;29.05;;;9.70;94.90;;;;;;5051973;28;20096;-79
2022/04/12 09:59:57;;;;;;;39.65;27.77;;;9.80;94.90;;;;;;5051514;28;20070;-79
2022/04/12 10:02:24;;;;;;;39.88;28.83;;;9.90;94.70;;;;;;5053221;28;20024;-82
2022/04/12 10:04:55;;;;;;;43.67;29.52;;;9.90;94.40;;;;;;5056921;28;20108;-80
2022/04/12 10:07:23;;;;;;;37.88;28.98;;;9.90;94.30;;;;;;5055905;28;20033;-80
2022/04/12 10:09:51;;;;;;;44.67;29.40;;;10.00;94.30;;;;;;5054962;28;20029;-80
2022/04/12 10:12:18;;;;;;;42.03;31.73;;;9.90;94.00;;;;;;5056625;28;20021;-80
2022/04/12 10:14:44;;;;;;;44.28;30.40;;;9.80;94.40;;;;;;5056455;28;20025;-80
2022/04/12 10:17:11;;;;;;;41.97;28.27;;;10.10;94.40;;;;;;5037522;28;20423;-79
2022/04/12 10:19:39;;;;;;;39.72;27.30;;;10.30;94.10;;;;;;5055717;28;20112;-78
2022/04/12 10:22:05;;;;;;;45.95;29.00;;;10.30;93.60;;;;;;5056660;28;20029;-81
2022/04/12 10:24:33;;;;;;;38.15;27.70;;;10.20;93.50;;;;;;5059430;28;20021;-80
2022/04/12 10:26:59;;;;;;;;;;;10.20;93.60;;;;;;5058617;28;20056;-78
2022/04/12 10:29:25;;;;;;;40.20;27.60;;;10.10;93.80;;;;;;5056633;28;19968;-80
2022/04/12 10:32:02;;;;;;;37.88;26.45;;;10.00;94.00;;;;;;5055831;28;20524;-79
2022/04/12 10:34:28;;;;;;;42.92;26.65;;;10.00;94.30;;;;;;5036756;28;20581;-80
2022/04/12 10:37:08;;;;;;;43.97;27.17;;;10.00;94.20;;;;;;5054587;28;20116;-80
2022/04/12 10:39:55;;;;;;;41.33;28.58;;;10.00;94.30;;;;;;5054852;28;20387;-78
2022/04/12 10:42:26;;;;;;;40.70;26.70;;;10.10;94.20;;;;;;5053523;28;20056;-80
2022/04/12 10:44:56;;;;;;;39.28;26.50;;;10.20;94.30;;;;;;5055041;28;20138;-79
2022/04/12 10:47:24;;;;;;;42.85;27.15;;;10.20;93.90;;;;;;5054626;28;20023;-80
2022/04/12 10:49:57;;;;;;;44.22;27.73;;;10.10;94.00;;;;;;5054788;28;20398;-79
2022/04/12 10:52:34;;;;;;;39.03;25.85;;;10.20;94.10;;;;;;5054436;28;20474;-78
2022/04/12 10:55:08;;;;;;;38.33;26.02;;;10.10;93.80;;;;;;5036458;28;20028;-80
2022/04/12 10:57:34;;;;;;;38.65;27.20;;;10.10;93.80;;;;;;5053262;28;20025;-79
2022/04/12 11:00:20;;;;;;;40.17;25.88;;;10.00;94.10;;;;;;5054341;28;20033;-78
2022/04/12 11:02:57;;;;;;;40.53;26.55;;;10.10;94.30;;;;;;5054396;28;20158;-79
2022/04/12 11:05:44;;;;;;;38.72;27.23;;;10.00;94.30;;;;;;5054327;28;20024;-80
2022/04/12 11:08:15;;;;;;;47.03;26.88;;;9.90;94.10;;;;;;5054213;28;20406;-78
2022/04/12 11:11:04;;;;;;;40.53;27.35;;;9.90;94.30;;;;;;5054254;28;20033;-80
2022/04/12 11:13:31;;;;;;;36.15;25.77;;;9.90;94.60;;;;;;5052699;28;20067;-80
2022/04/12 11:16:00;;;;;;;40.05;27.08;;;10.00;94.40;;;;;;5035872;28;20123;-80
2022/04/12 11:18:54;;;;;;;36.95;24.35;;;10.00;94.50;;;;;;5036103;28;20364;-81
2022/04/12 11:21:26;;;;;;;37.47;25.42;;;10.00;94.60;;;;;;5056690;28;20100;-82
2022/04/12 11:23:52;;;;;;;35.03;23.95;;;10.00;94.30;;;;;;5056400;28;20031;-81
2022/04/12 11:26:27;;;;;;;35.00;23.92;;;9.90;94.30;;;;;;5054043;28;20475;-78
2022/04/12 11:28:56;;;;;;;33.95;22.85;;;9.70;94.60;;;;;;5053936;28;20103;-80
2022/04/12 11:31:22;;;;;;;34.40;24.42;;;9.60;94.80;;;;;;5052879;28;20506;-79
2022/04/12 11:33:48;;;;;;;33.08;22.02;;;9.50;95.10;;;;;;5053747;28;20048;-79
2022/04/12 11:36:20;;;;;;;33.42;22.60;;;9.40;95.70;;;;;;5053662;28;20071;-79
2022/04/12 11:38:47;;;;;;;34.45;21.75;;;9.40;95.80;;;;;;5053918;28;20087;-78
2022/04/12 11:41:14;;;;;;;35.53;22.17;;;9.50;95.70;;;;;;5054125;28;20013;-80
2022/04/12 11:43:40;;;;;;;35.50;22.87;;;9.50;95.80;;;;;;5054064;28;20427;-79
2022/04/12 11:46:05;;;;;;;36.53;23.23;;;9.50;95.50;;;;;;5053605;28;20298;-80
2022/04/12 11:48:32;;;;;;;28.70;20.52;;;9.50;95.50;;;;;;5052856;28;20180;-85
2022/04/12 11:51:04;;;;;;;29.95;21.33;;;9.40;95.60;;;;;;5035615;28;20032;-79
2022/04/12 11:53:29;;;;;;;33.47;21.17;;;9.40;95.70;;;;;;5053654;28;20021;-79
2022/04/12 11:56:03;;;;;;;30.42;21.35;;;9.30;96.00;;;;;;5053533;28;20033;-80
2022/04/12 11:58:30;;;;;;;34.00;22.80;;;9.30;96.00;;;;;;5053988;28;20029;-79
2022/04/12 12:00:57;;;;;;;31.77;21.80;;;9.10;96.30;;;;;;5053900;28;20029;-79
2022/04/12 12:03:24;;;;;;;32.67;20.73;;;9.10;96.60;;;;;;5040086;28;20383;-83
2022/04/12 12:05:50;;;;;;;32.50;20.73;;;9.10;96.70;;;;;;5050988;28;20025;-80
2022/04/12 12:08:22;;;;;;;27.23;20.17;;;9.10;96.70;;;;;;5053359;28;20142;-80
2022/04/12 12:10:52;;;;;;;31.05;21.58;;;9.20;96.70;;;;;;5053358;28;20490;-80
2022/04/12 12:13:22;;;;;;;37.40;22.00;;;9.20;96.60;;;;;;5053287;28;20039;-81
2022/04/12 12:15:48;;;;;;;32.67;18.98;;;9.30;96.60;;;;;;5053963;28;20071;-80
2022/04/12 12:18:18;;;;;;;32.78;20.80;;;9.40;96.40;;;;;;5054315;28;20049;-80
2022/04/12 12:20:45;;;;;;;29.98;20.02;;;9.40;96.30;;;;;;5035910;28;20131;-79
2022/04/12 12:23:11;;;;;;;;;;;9.40;95.90;;;;;;5054566;28;20017;-82
2022/04/12 12:25:55;;;;;;;33.95;19.88;;;9.30;96.10;;;;;;5052616;28;19950;-79
2022/04/12 12:28:26;;;;;;;27.15;18.70;;;9.20;96.30;;;;;;5053012;28;20029;-81
2022/04/12 12:31:00;;;;;;;35.03;20.55;;;9.10;96.70;;;;;;5053069;28;20108;-80
2022/04/12 12:33:41;;;;;;;28.20;18.63;;;9.00;96.90;;;;;;5053207;28;20048;-79
2022/04/12 12:36:25;;;;;;;34.47;18.08;;;9.00;97.10;;;;;;5034323;28;20026;-80
2022/04/12 12:38:54;;;;;;;31.98;19.88;;;9.00;96.90;;;;;;5046116;28;20029;-81
2022/04/12 12:41:40;;;;;;;29.77;19.00;;;8.90;97.00;;;;;;5034823;28;20033;-82
2022/04/12 12:44:08;;;;;;;32.97;18.88;;;8.90;97.40;;;;;;5035168;28;20474;-81
2022/04/12 12:46:35;;;;;;;35.47;20.02;;;8.90;97.40;;;;;;5052638;28;20029;-78